createdAt,value
2022-10-13T00:01:11.053Z,16.35
2022-10-13T00:03:39.264Z,16.45
2022-10-13T00:06:07.358Z,15.30
2022-10-13T00:08:36.678Z,15.65
2022-10-13T00:11:09.935Z,15.05
2022-10-13T00:13:37.278Z,13.93
2022-10-13T00:16:05.002Z,15.07
2022-10-13T00:18:32.575Z,15.40
2022-10-13T00:20:59.929Z,14.63
2022-10-13T00:23:27.348Z,15.75
2022-10-13T00:25:56.182Z,15.30
2022-10-13T00:28:23.596Z,15.50
2022-10-13T00:30:51.014Z,16.33
2022-10-13T00:33:18.397Z,14.95
2022-10-13T00:35:46.389Z,14.80
2022-10-13T00:38:15.549Z,15.38
2022-10-13T00:40:44.274Z,13.80
2022-10-13T00:43:16.335Z,14.40
2022-10-13T00:45:43.931Z,15.88
2022-10-13T00:48:11.368Z,14.30
2022-10-13T00:50:40.166Z,18.08
2022-10-13T00:53:08.280Z,14.77
2022-10-13T00:55:37.685Z,15.02
2022-10-13T00:58:07.269Z,14.50
2022-10-13T01:00:36.274Z,14.93
2022-10-13T01:03:04.065Z,14.75
2022-10-13T01:05:31.874Z,15.85
2022-10-13T01:08:00.382Z,14.35
2022-10-13T01:10:32.496Z,15.57
2022-10-13T01:13:02.208Z,14.27
2022-10-13T01:15:32.908Z,14.15
2022-10-13T01:18:06.944Z,14.88
2022-10-13T01:20:50.049Z,13.93
2022-10-13T01:23:23.543Z,14.15
2022-10-13T01:25:59.948Z,13.05
2022-10-13T01:28:35.709Z,14.05
2022-10-13T01:31:07.639Z,14.57
2022-10-13T01:33:40.401Z,16.17
2022-10-13T01:36:12.412Z,16.58
2022-10-13T01:38:41.411Z,15.27
2022-10-13T01:41:12.610Z,14.70
2022-10-13T01:43:43.746Z,14.93
2022-10-13T01:46:14.739Z,13.27
2022-10-13T01:48:43.578Z,14.00
2022-10-13T01:51:13.329Z,14.48
2022-10-13T01:53:40.925Z,14.50
2022-10-13T01:56:08.545Z,13.40
2022-10-13T01:58:37.560Z,14.27
2022-10-13T02:01:11.135Z,14.20
2022-10-13T02:03:44.466Z,14.13
2022-10-13T02:06:16.456Z,14.35
2022-10-13T02:08:46.999Z,13.73
2022-10-13T02:11:16.424Z,14.10
2022-10-13T02:13:46.404Z,15.13
2022-10-13T02:16:23.502Z,13.20
2022-10-13T02:18:52.426Z,13.00
2022-10-13T02:21:20.130Z,14.23
2022-10-13T02:23:47.531Z,13.50
2022-10-13T02:26:15.262Z,15.60
2022-10-13T02:28:43.184Z,14.98
2022-10-13T02:33:37.855Z,13.52
2022-10-13T02:36:06.616Z,13.85
2022-10-13T02:38:33.979Z,14.32
2022-10-13T02:41:01.726Z,15.00
2022-10-13T02:43:29.172Z,14.15
2022-10-13T02:45:56.557Z,12.55
2022-10-13T02:48:23.957Z,14.75
2022-10-13T02:50:51.311Z,13.07
2022-10-13T02:53:20.054Z,13.73
2022-10-13T02:55:48.321Z,15.20
2022-10-13T02:58:15.677Z,12.75
2022-10-13T03:00:43.115Z,13.18
2022-10-13T03:03:12.021Z,14.30
2022-10-13T03:05:39.478Z,14.10
2022-10-13T03:08:06.880Z,12.82
2022-10-13T03:10:35.591Z,12.98
2022-10-13T03:13:02.951Z,12.48
2022-10-13T03:15:30.560Z,13.57
2022-10-13T03:17:59.936Z,13.48
2022-10-13T03:20:27.381Z,14.10
2022-10-13T03:22:54.761Z,12.73
2022-10-13T03:25:22.100Z,14.30
2022-10-13T03:27:52.450Z,15.63
2022-10-13T03:30:19.852Z,14.75
2022-10-13T03:32:47.239Z,15.52
2022-10-13T03:35:14.907Z,19.50
2022-10-13T03:37:42.270Z,16.48
2022-10-13T03:40:10.799Z,13.13
2022-10-13T03:42:38.159Z,14.10
2022-10-13T03:45:07.434Z,13.48
2022-10-13T03:47:36.386Z,15.32
2022-10-13T03:50:04.112Z,14.68
2022-10-13T03:52:31.539Z,13.93
2022-10-13T03:54:58.907Z,13.93
2022-10-13T03:57:26.341Z,14.18
2022-10-13T03:59:55.896Z,13.60
2022-10-13T04:02:25.490Z,12.65
2022-10-13T04:04:53.979Z,13.75
2022-10-13T04:07:21.376Z,13.77
2022-10-13T04:09:48.772Z,14.35
2022-10-13T04:12:20.664Z,14.88
2022-10-13T04:14:48.587Z,14.98
2022-10-13T04:17:16.000Z,13.77
2022-10-13T04:19:44.733Z,13.10
2022-10-13T04:22:12.151Z,15.25
2022-10-13T04:24:41.747Z,14.35
2022-10-13T04:27:09.350Z,13.60
2022-10-13T04:29:36.704Z,14.45
2022-10-13T04:32:04.188Z,22.25
2022-10-13T04:34:31.608Z,13.98
2022-10-13T04:37:00.321Z,12.93
2022-10-13T04:39:27.737Z,13.60
2022-10-13T04:41:56.305Z,13.77
2022-10-13T04:44:23.761Z,13.07
2022-10-13T04:46:51.142Z,13.90
2022-10-13T04:49:18.646Z,14.23
2022-10-13T04:51:46.169Z,14.02
2022-10-13T04:54:14.891Z,13.80
2022-10-13T04:56:42.327Z,14.40
2022-10-13T04:59:09.694Z,13.73
2022-10-13T05:01:37.077Z,13.68
2022-10-13T05:04:07.333Z,13.25
2022-10-13T05:06:48.605Z,12.43
2022-10-13T05:09:26.138Z,13.98
2022-10-13T05:11:54.752Z,14.25
2022-10-13T05:14:22.325Z,13.40
2022-10-13T05:16:50.004Z,13.85
2022-10-13T05:19:17.439Z,12.75
2022-10-13T05:21:44.851Z,13.32
2022-10-13T05:24:13.578Z,12.73
2022-10-13T05:26:42.923Z,13.10
2022-10-13T05:29:10.308Z,13.50
2022-10-13T05:31:38.070Z,14.30
2022-10-13T05:34:05.456Z,12.18
2022-10-13T05:36:33.748Z,12.35
2022-10-13T05:39:02.032Z,12.05
2022-10-13T05:41:29.840Z,11.82
2022-10-13T05:43:59.823Z,12.70
2022-10-13T05:46:27.289Z,12.95
2022-10-13T05:48:54.764Z,12.52
2022-10-13T05:51:25.905Z,12.20
2022-10-13T05:54:00.812Z,13.02
2022-10-13T05:56:31.126Z,13.13
2022-10-13T05:59:01.764Z,13.27
2022-10-13T06:01:29.991Z,12.43
2022-10-13T06:03:59.784Z,16.92
2022-10-13T06:06:31.340Z,13.63
2022-10-13T06:08:59.281Z,14.32
2022-10-13T06:11:26.711Z,13.45
2022-10-13T06:13:54.113Z,12.07
2022-10-13T06:16:22.935Z,13.70
2022-10-13T06:18:50.312Z,12.60
2022-10-13T06:21:17.680Z,12.50
2022-10-13T06:23:45.049Z,13.07
2022-10-13T06:26:12.468Z,12.15
2022-10-13T06:28:39.951Z,12.88
2022-10-13T06:31:07.854Z,11.43
2022-10-13T06:33:36.594Z,12.43
2022-10-13T06:36:04.408Z,11.65
2022-10-13T06:38:31.859Z,12.70
2022-10-13T06:41:02.465Z,12.77
2022-10-13T06:43:39.585Z,12.32
2022-10-13T06:46:10.160Z,12.82
2022-10-13T06:48:38.916Z,13.15
2022-10-13T06:51:07.273Z,11.10
2022-10-13T06:53:34.660Z,11.50
2022-10-13T06:56:02.654Z,11.65
2022-10-13T07:00:58.401Z,11.55
2022-10-13T07:03:26.007Z,11.82
2022-10-13T07:05:54.742Z,11.35
2022-10-13T07:08:22.144Z,10.60
2022-10-13T07:10:49.684Z,12.23
2022-10-13T07:13:17.108Z,10.98
2022-10-13T07:15:44.551Z,10.63
2022-10-13T07:18:11.936Z,10.75
2022-10-13T07:20:39.352Z,10.70
2022-10-13T07:23:08.232Z,11.68
2022-10-13T07:25:35.793Z,11.77
2022-10-13T07:28:04.991Z,9.63
2022-10-13T07:30:32.467Z,10.18
2022-10-13T07:33:00.029Z,10.57
2022-10-13T07:35:30.685Z,11.32
2022-10-13T07:37:58.540Z,11.10
2022-10-13T07:40:27.473Z,10.25
2022-10-13T07:42:56.608Z,9.93
2022-10-13T07:45:23.992Z,10.13
2022-10-13T07:47:51.405Z,10.15
2022-10-13T07:50:18.878Z,9.82
2022-10-13T07:52:46.244Z,9.77
2022-10-13T07:55:13.690Z,10.35
2022-10-13T07:57:42.386Z,10.13
2022-10-13T08:00:10.495Z,9.07
2022-10-13T08:02:42.312Z,9.55
2022-10-13T08:05:09.872Z,9.30
2022-10-13T08:07:37.990Z,10.00
2022-10-13T08:10:05.771Z,9.32
2022-10-13T08:12:33.145Z,10.18
2022-10-13T08:15:05.289Z,9.32
2022-10-13T08:17:33.861Z,9.15
2022-10-13T08:20:01.305Z,9.35
2022-10-13T08:22:28.932Z,9.38
2022-10-13T08:24:56.724Z,9.05
2022-10-13T08:27:32.836Z,9.38
2022-10-13T08:32:42.112Z,8.50
2022-10-13T08:35:09.888Z,8.63
2022-10-13T08:37:37.254Z,8.93
2022-10-13T08:40:04.996Z,8.48
2022-10-13T08:42:32.960Z,9.27
2022-10-13T08:45:39.939Z,9.07
2022-10-13T08:47:52.167Z,8.55
2022-10-13T08:50:22.421Z,8.75
2022-10-13T08:52:50.949Z,8.52
2022-10-13T08:55:24.517Z,8.40
2022-10-13T08:57:52.112Z,8.77
2022-10-13T09:00:23.313Z,8.38
2022-10-13T09:02:52.423Z,9.52
2022-10-13T09:05:23.260Z,7.88
2022-10-13T09:10:27.009Z,8.68
2022-10-13T09:12:55.889Z,9.88
2022-10-13T09:15:23.561Z,8.40
2022-10-13T09:18:08.738Z,8.45
2022-10-13T09:20:36.180Z,8.70
2022-10-13T09:25:39.908Z,7.03
2022-10-13T09:28:11.318Z,8.65
2022-10-13T09:30:40.976Z,8.77
2022-10-13T09:33:21.019Z,7.28
2022-10-13T09:35:49.546Z,7.85
2022-10-13T09:38:17.596Z,8.45
2022-10-13T09:40:56.690Z,8.38
2022-10-13T09:43:28.322Z,8.77
2022-10-13T09:45:56.062Z,7.80
2022-10-13T09:48:26.941Z,9.02
2022-10-13T09:50:55.745Z,8.63
2022-10-13T09:53:25.469Z,8.13
2022-10-13T09:56:07.953Z,7.78
2022-10-13T09:58:36.933Z,7.43
2022-10-13T10:01:04.528Z,7.40
2022-10-13T10:03:35.005Z,8.00
2022-10-13T10:06:03.159Z,7.63
2022-10-13T10:08:51.258Z,6.53
2022-10-13T10:11:27.501Z,6.97
2022-10-13T10:13:55.799Z,6.75
2022-10-13T10:16:30.080Z,6.90
2022-10-13T10:19:01.063Z,6.25
2022-10-13T10:21:32.378Z,6.57
2022-10-13T10:24:03.572Z,7.03
2022-10-13T10:26:39.895Z,5.88
2022-10-13T10:29:15.858Z,5.30
2022-10-13T10:31:51.963Z,5.00
2022-10-13T10:34:29.779Z,6.03
2022-10-13T10:37:01.940Z,7.03
2022-10-13T10:39:32.268Z,5.53
2022-10-13T10:42:03.938Z,5.60
2022-10-13T10:44:33.706Z,6.03
2022-10-13T10:47:02.998Z,6.15
2022-10-13T10:49:33.003Z,5.00
2022-10-13T10:52:00.825Z,5.72
2022-10-13T10:56:57.232Z,5.25
2022-10-13T10:59:29.151Z,6.10
2022-10-13T11:02:03.421Z,5.90
2022-10-13T11:04:40.108Z,5.32
2022-10-13T11:07:11.376Z,6.22
2022-10-13T11:10:12.100Z,5.70
2022-10-13T11:13:07.020Z,6.18
2022-10-13T11:15:42.226Z,5.97
2022-10-13T11:18:28.153Z,5.88
2022-10-13T11:21:00.119Z,6.53
2022-10-13T11:23:31.223Z,6.05
2022-10-13T11:26:15.850Z,5.43
2022-10-13T11:28:47.173Z,4.90
2022-10-13T11:31:25.364Z,5.43
2022-10-13T11:33:54.657Z,6.47
2022-10-13T11:36:40.487Z,5.88
2022-10-13T11:39:25.837Z,5.13
2022-10-13T11:41:55.950Z,5.72
2022-10-13T11:47:03.595Z,5.68
2022-10-13T11:49:44.417Z,5.75
2022-10-13T11:52:20.133Z,5.75
2022-10-13T11:54:51.351Z,5.45
2022-10-13T11:57:19.690Z,4.82
2022-10-13T11:59:48.192Z,5.72
2022-10-13T12:02:19.146Z,4.97
2022-10-13T12:04:59.915Z,4.93
2022-10-13T12:07:31.730Z,6.00
2022-10-13T12:10:01.404Z,4.63
2022-10-13T12:12:28.804Z,4.80
2022-10-13T12:14:59.897Z,6.20
2022-10-13T12:17:31.794Z,5.15
2022-10-13T12:20:00.556Z,6.40
2022-10-13T12:22:29.453Z,5.65
2022-10-13T12:27:25.899Z,5.47
2022-10-13T12:29:53.350Z,6.30
2022-10-13T12:32:21.396Z,6.00
2022-10-13T12:34:49.568Z,5.90
2022-10-13T12:37:22.479Z,6.22
2022-10-13T12:39:50.306Z,5.10
2022-10-13T12:42:19.056Z,5.40
2022-10-13T12:44:47.878Z,5.65
2022-10-13T12:47:33.800Z,5.45
2022-10-13T12:50:16.153Z,5.55
2022-10-13T12:52:43.804Z,5.72
2022-10-13T12:55:14.587Z,6.35
2022-10-13T12:57:42.401Z,5.80
2022-10-13T13:00:22.010Z,6.57
2022-10-13T13:02:52.040Z,5.97
2022-10-13T13:05:32.494Z,5.03
2022-10-13T13:08:02.854Z,5.68
2022-10-13T13:10:31.063Z,5.97
2022-10-13T13:13:12.977Z,6.10
2022-10-13T13:15:41.829Z,8.90
2022-10-13T13:18:39.484Z,7.03
2022-10-13T13:21:07.472Z,6.45
2022-10-13T13:23:35.784Z,7.60
2022-10-13T13:26:05.250Z,7.80
2022-10-13T13:28:33.464Z,8.82
2022-10-13T13:31:05.268Z,8.38
2022-10-13T13:33:32.633Z,8.35
2022-10-13T13:36:00.484Z,8.38
2022-10-13T13:38:27.854Z,9.30
2022-10-13T13:40:55.993Z,9.82
2022-10-13T13:43:23.394Z,9.18
2022-10-13T13:45:50.833Z,9.90
2022-10-13T13:48:19.542Z,9.82
2022-10-13T13:50:47.816Z,8.95
2022-10-13T13:53:15.172Z,11.38
2022-10-13T13:55:44.589Z,10.25
2022-10-13T13:58:16.248Z,10.80
2022-10-13T14:00:43.684Z,9.90
2022-10-13T14:03:11.855Z,11.23
2022-10-13T14:05:41.877Z,10.80
2022-10-13T14:08:09.303Z,11.18
2022-10-13T14:10:36.734Z,12.05
2022-10-13T14:13:04.143Z,12.27
2022-10-13T14:15:31.507Z,11.80
2022-10-13T14:17:58.991Z,12.38
2022-10-13T14:20:26.395Z,9.70
2022-10-13T14:22:55.113Z,10.43
2022-10-13T14:25:22.509Z,10.13
2022-10-13T14:27:49.865Z,11.80
2022-10-13T14:30:17.367Z,10.82
2022-10-13T14:32:44.793Z,10.60
2022-10-13T14:35:12.401Z,9.40
2022-10-13T14:37:40.135Z,9.50
2022-10-13T14:42:36.230Z,8.15
2022-10-13T14:45:06.422Z,8.50
2022-10-13T14:47:33.775Z,7.95
2022-10-13T14:50:01.863Z,9.00
2022-10-13T14:52:29.306Z,8.35
2022-10-13T14:54:56.744Z,7.55
2022-10-13T14:57:24.249Z,8.13
2022-10-13T14:59:53.674Z,9.02
2022-10-13T15:02:23.185Z,8.45
2022-10-13T15:04:53.318Z,8.75
2022-10-13T15:07:20.916Z,9.05
2022-10-13T15:10:15.070Z,8.82
2022-10-13T15:12:35.851Z,9.77
2022-10-13T15:15:04.873Z,8.90
2022-10-13T15:17:33.154Z,9.50
2022-10-13T15:20:00.604Z,9.93
2022-10-13T15:22:27.967Z,9.15
2022-10-13T15:24:55.389Z,9.40
2022-10-13T15:27:22.747Z,9.55
2022-10-13T15:29:50.135Z,9.70
2022-10-13T15:32:20.275Z,11.57
2022-10-13T15:34:55.750Z,11.15
2022-10-13T15:37:23.157Z,11.10
2022-10-13T15:39:54.658Z,10.32
2022-10-13T15:42:24.727Z,11.70
2022-10-13T15:47:40.809Z,13.50
2022-10-13T15:50:08.653Z,13.20
2022-10-13T15:55:03.498Z,13.43
2022-10-13T15:57:31.597Z,13.27
2022-10-13T15:59:59.029Z,13.55
2022-10-13T16:02:26.427Z,14.52
2022-10-13T16:04:56.587Z,14.23
2022-10-13T16:07:23.961Z,13.27
2022-10-13T16:09:51.371Z,15.57
2022-10-13T16:12:19.031Z,14.80
2022-10-13T16:14:46.652Z,14.82
2022-10-13T16:17:14.042Z,17.02
2022-10-13T16:19:41.401Z,15.43
2022-10-13T16:22:10.213Z,15.15
2022-10-13T16:24:37.779Z,14.90
2022-10-13T16:27:06.617Z,15.43
2022-10-13T16:32:01.399Z,15.10
2022-10-13T16:34:28.947Z,14.50
2022-10-13T16:36:56.334Z,15.77
2022-10-13T16:39:25.993Z,16.02
2022-10-13T16:41:53.350Z,16.25
2022-10-13T16:44:25.159Z,15.27
2022-10-13T16:46:54.983Z,16.02
2022-10-13T16:49:22.362Z,16.83
2022-10-13T16:51:49.745Z,15.40
2022-10-13T16:54:17.120Z,16.77
2022-10-13T16:56:46.767Z,16.13
2022-10-13T16:59:14.160Z,17.00
2022-10-13T17:01:41.547Z,17.50
2022-10-13T17:04:08.969Z,20.67
2022-10-13T17:06:38.546Z,28.85
2022-10-13T17:09:05.986Z,28.55
2022-10-13T17:11:33.999Z,21.40
2022-10-13T17:14:06.272Z,17.45
2022-10-13T17:16:34.095Z,16.83
2022-10-13T17:19:01.453Z,17.65
2022-10-13T17:21:33.712Z,17.52
2022-10-13T17:24:01.267Z,17.73
2022-10-13T17:26:28.639Z,18.27
2022-10-13T17:28:56.136Z,20.35
2022-10-13T17:31:24.908Z,20.58
2022-10-13T17:33:52.504Z,22.00
2022-10-13T17:36:21.118Z,20.42
2022-10-13T17:38:49.243Z,20.02
2022-10-13T17:41:17.124Z,21.38
2022-10-13T17:43:49.421Z,19.50
2022-10-13T17:49:05.731Z,18.35
2022-10-13T17:51:33.154Z,15.70
2022-10-13T17:54:00.996Z,16.98
2022-10-13T17:56:28.888Z,18.13
2022-10-13T18:03:52.476Z,13.95
2022-10-13T18:06:24.154Z,14.07
2022-10-13T18:08:51.636Z,12.13
2022-10-13T18:11:19.820Z,12.32
2022-10-13T18:13:47.397Z,10.50
2022-10-13T18:16:15.831Z,11.90
2022-10-13T18:18:43.764Z,11.75
2022-10-13T18:23:39.902Z,11.10
2022-10-13T18:26:08.954Z,11.20
2022-10-13T18:28:39.895Z,9.80
2022-10-13T18:31:08.137Z,10.48
2022-10-13T18:33:35.533Z,9.70
2022-10-13T18:36:02.935Z,9.32
2022-10-13T18:38:30.318Z,10.68
2022-10-13T18:41:00.123Z,10.07
2022-10-13T18:43:27.628Z,10.73
2022-10-13T18:45:59.451Z,11.23
2022-10-13T18:48:26.856Z,10.52
2022-10-13T18:50:54.233Z,10.93
2022-10-13T18:53:21.666Z,11.77
2022-10-13T18:55:49.051Z,11.05
2022-10-13T18:58:17.759Z,12.27
2022-10-13T19:00:45.177Z,10.77
2022-10-13T19:03:13.149Z,11.63
2022-10-13T19:08:09.395Z,12.38
2022-10-13T19:10:37.235Z,11.30
2022-10-13T19:13:04.651Z,12.35
2022-10-13T19:15:33.392Z,12.18
2022-10-13T19:18:00.771Z,13.10
2022-10-13T19:20:28.160Z,12.65
2022-10-13T19:22:58.492Z,12.40
2022-10-13T19:25:26.214Z,13.15
2022-10-13T19:27:54.040Z,11.90
2022-10-13T19:30:21.433Z,13.45
2022-10-13T19:32:55.369Z,13.43
2022-10-13T19:35:22.977Z,13.80
2022-10-13T19:37:50.384Z,15.00
2022-10-13T19:40:17.864Z,15.95
2022-10-13T19:42:45.437Z,13.18
2022-10-13T19:45:12.927Z,15.82
2022-10-13T19:47:40.334Z,15.32
2022-10-13T19:50:09.392Z,16.80
2022-10-13T19:52:36.811Z,15.70
2022-10-13T19:55:04.331Z,17.00
2022-10-13T19:57:31.746Z,16.63
2022-10-13T19:59:59.092Z,16.25
2022-10-13T20:02:26.583Z,17.20
2022-10-13T20:04:53.984Z,18.73
2022-10-13T20:07:22.935Z,17.92
2022-10-13T20:09:50.582Z,17.95
2022-10-13T20:12:17.956Z,20.92
2022-10-13T20:14:47.023Z,20.50
2022-10-13T20:17:14.408Z,19.27
2022-10-13T20:19:43.215Z,21.80
2022-10-13T20:22:10.566Z,20.98
2022-10-13T20:24:39.268Z,21.42
2022-10-13T20:27:06.753Z,19.10
2022-10-13T20:29:35.485Z,22.45
2022-10-13T20:32:02.856Z,20.77
2022-10-13T20:34:30.606Z,22.65
2022-10-13T20:36:57.967Z,22.33
2022-10-13T20:39:28.883Z,23.27
2022-10-13T20:41:57.596Z,24.23
2022-10-13T20:44:25.016Z,24.52
2022-10-13T20:46:52.492Z,26.55
2022-10-13T20:49:22.257Z,26.00
2022-10-13T20:51:49.627Z,25.27
2022-10-13T20:54:17.033Z,28.42
2022-10-13T20:56:44.434Z,27.10
2022-10-13T20:59:14.402Z,26.05
2022-10-13T21:01:43.042Z,28.48
2022-10-13T21:04:11.121Z,27.50
2022-10-13T21:06:38.906Z,28.60
2022-10-13T21:09:06.707Z,28.63
2022-10-13T21:11:34.431Z,30.20
2022-10-13T21:14:06.071Z,28.30
2022-10-13T21:16:35.375Z,29.33
2022-10-13T21:19:06.526Z,28.02
2022-10-13T21:21:34.323Z,27.98
2022-10-13T21:24:02.554Z,31.40
2022-10-13T21:26:30.696Z,31.08
2022-10-13T21:28:58.585Z,30.02
2022-10-13T21:33:55.021Z,30.17
2022-10-13T21:36:23.628Z,31.75
2022-10-13T21:38:51.897Z,31.90
2022-10-13T21:41:19.337Z,31.40
2022-10-13T21:43:46.696Z,32.53
2022-10-13T21:46:15.183Z,32.80
2022-10-13T21:48:45.738Z,34.47
2022-10-13T21:51:16.213Z,31.05
2022-10-13T21:53:43.683Z,28.60
2022-10-13T21:56:12.248Z,30.10
2022-10-13T21:58:39.681Z,28.17
2022-10-13T22:01:07.738Z,29.88
2022-10-13T22:03:35.511Z,28.48
2022-10-13T22:06:06.594Z,27.00
2022-10-13T22:08:38.498Z,26.27
2022-10-13T22:11:15.209Z,24.90
2022-10-13T22:13:42.568Z,22.90
2022-10-13T22:16:11.953Z,21.65
2022-10-13T22:18:42.512Z,22.95
2022-10-13T22:21:11.709Z,21.73
2022-10-13T22:23:40.449Z,20.08
2022-10-13T22:26:08.676Z,20.73
2022-10-13T22:28:37.447Z,20.90
2022-10-13T22:31:06.052Z,20.83
2022-10-13T22:33:34.632Z,18.42
2022-10-13T22:36:06.992Z,18.83
2022-10-13T22:38:34.451Z,20.55
2022-10-13T22:41:06.399Z,19.83
2022-10-13T22:43:33.829Z,18.80
2022-10-13T22:46:11.608Z,17.33
2022-10-13T22:48:40.988Z,18.25
2022-10-13T22:51:15.056Z,19.75
2022-10-13T22:53:42.481Z,18.05
2022-10-13T22:56:12.672Z,18.50
2022-10-13T22:58:40.043Z,18.40
2022-10-13T23:01:08.486Z,18.50
2022-10-13T23:03:35.889Z,18.45
2022-10-13T23:06:03.763Z,18.77
2022-10-13T23:08:31.496Z,18.83
2022-10-13T23:10:59.101Z,18.38
2022-10-13T23:13:27.835Z,20.08
2022-10-13T23:16:01.330Z,20.30
2022-10-13T23:18:31.326Z,20.83
2022-10-13T23:20:58.755Z,20.50
2022-10-13T23:23:26.848Z,21.65
2022-10-13T23:25:54.187Z,19.95
2022-10-13T23:28:21.628Z,20.30
2022-10-13T23:30:50.352Z,20.50
2022-10-13T23:33:17.853Z,19.38
2022-10-13T23:35:45.842Z,21.77
2022-10-13T23:38:13.213Z,19.67
2022-10-13T23:40:40.772Z,19.65
2022-10-13T23:43:08.213Z,20.65
2022-10-13T23:48:05.403Z,21.15
2022-10-13T23:50:33.531Z,21.33
2022-10-13T23:53:01.379Z,21.45
2022-10-13T23:55:29.055Z,23.83
2022-10-13T23:57:56.430Z,22.15
